sensor_id;sensor_type;location;lat;lon;timestamp;P1;durP1;ratioP1;P2;durP2;ratioP2
45863;SDS011;31579;52.354;16.974;2022-08-01T00:03:41;7.40;;;4.30;;
45863;SDS011;31579;52.354;16.974;2022-08-01T00:08:41;7.40;;;4.30;;
45863;SDS011;31579;52.354;16.974;2022-08-01T00:13:44;5.80;;;3.30;;
45863;SDS011;31579;52.354;16.974;2022-08-01T00:18:41;5.80;;;3.30;;
45863;SDS011;31579;52.354;16.974;2022-08-01T00:23:41;8.40;;;5.10;;
45863;SDS011;31579;52.354;16.974;2022-08-01T00:28:41;8.40;;;5.10;;
45863;SDS011;31579;52.354;16.974;2022-08-01T00:33:41;7.70;;;5.00;;
45863;SDS011;31579;52.354;16.974;2022-08-01T00:38:41;7.70;;;5.00;;
45863;SDS011;31579;52.354;16.974;2022-08-01T00:43:41;5.80;;;3.70;;
45863;SDS011;31579;52.354;16.974;2022-08-01T00:48:41;5.80;;;3.70;;
45863;SDS011;31579;52.354;16.974;2022-08-01T00:53:41;5.20;;;3.30;;
45863;SDS011;31579;52.354;16.974;2022-08-01T00:58:41;5.20;;;3.30;;
45863;SDS011;31579;52.354;16.974;2022-08-01T01:03:44;6.70;;;3.70;;
45863;SDS011;31579;52.354;16.974;2022-08-01T01:08:43;6.70;;;3.70;;
45863;SDS011;31579;52.354;16.974;2022-08-01T01:13:43;7.50;;;4.60;;
45863;SDS011;31579;52.354;16.974;2022-08-01T01:18:46;7.50;;;4.60;;
45863;SDS011;31579;52.354;16.974;2022-08-01T01:33:41;9.40;;;6.30;;
45863;SDS011;31579;52.354;16.974;2022-08-01T01:38:42;9.40;;;6.30;;
45863;SDS011;31579;52.354;16.974;2022-08-01T01:43:41;9.50;;;5.80;;
45863;SDS011;31579;52.354;16.974;2022-08-01T01:48:42;9.50;;;5.80;;
45863;SDS011;31579;52.354;16.974;2022-08-01T01:53:41;11.40;;;6.40;;
45863;SDS011;31579;52.354;16.974;2022-08-01T01:58:02;11.40;;;6.40;;
45863;SDS011;31579;52.354;16.974;2022-08-01T02:03:01;9.10;;;5.80;;
45863;SDS011;31579;52.354;16.974;2022-08-01T02:08:01;9.10;;;5.80;;
45863;SDS011;31579;52.354;16.974;2022-08-01T02:13:01;8.60;;;6.10;;
45863;SDS011;31579;52.354;16.974;2022-08-01T02:18:00;8.60;;;6.10;;
45863;SDS011;31579;52.354;16.974;2022-08-01T02:23:06;9.60;;;5.90;;
45863;SDS011;31579;52.354;16.974;2022-08-01T02:28:04;9.60;;;5.90;;
45863;SDS011;31579;52.354;16.974;2022-08-01T02:33:05;9.20;;;6.70;;
45863;SDS011;31579;52.354;16.974;2022-08-01T02:38:01;9.20;;;6.70;;
45863;SDS011;31579;52.354;16.974;2022-08-01T02:43:02;8.30;;;6.80;;
45863;SDS011;31579;52.354;16.974;2022-08-01T02:48:03;8.30;;;6.80;;
45863;SDS011;31579;52.354;16.974;2022-08-01T02:53:00;10.60;;;7.10;;
45863;SDS011;31579;52.354;16.974;2022-08-01T02:58:01;10.60;;;7.10;;
45863;SDS011;31579;52.354;16.974;2022-08-01T03:03:01;13.30;;;7.10;;
45863;SDS011;31579;52.354;16.974;2022-08-01T03:08:01;13.30;;;7.10;;
45863;SDS011;31579;52.354;16.974;2022-08-01T03:13:01;11.10;;;7.30;;
45863;SDS011;31579;52.354;16.974;2022-08-01T03:18:01;11.10;;;7.30;;
45863;SDS011;31579;52.354;16.974;2022-08-01T03:23:03;11.20;;;7.10;;
45863;SDS011;31579;52.354;16.974;2022-08-01T03:28:02;11.20;;;7.10;;
45863;SDS011;31579;52.354;16.974;2022-08-01T03:33:00;11.00;;;7.90;;
45863;SDS011;31579;52.354;16.974;2022-08-01T03:38:01;11.00;;;7.90;;
45863;SDS011;31579;52.354;16.974;2022-08-01T03:43:04;11.30;;;8.20;;
45863;SDS011;31579;52.354;16.974;2022-08-01T03:48:03;11.30;;;8.20;;
45863;SDS011;31579;52.354;16.974;2022-08-01T03:53:01;10.10;;;7.00;;
45863;SDS011;31579;52.354;16.974;2022-08-01T03:58:00;10.10;;;7.00;;
45863;SDS011;31579;52.354;16.974;2022-08-01T04:03:05;10.90;;;8.20;;
45863;SDS011;31579;52.354;16.974;2022-08-01T04:10:08;10.90;;;8.20;;
45863;SDS011;31579;52.354;16.974;2022-08-01T04:15:08;11.70;;;8.50;;
45863;SDS011;31579;52.354;16.974;2022-08-01T04:20:08;11.70;;;8.50;;
45863;SDS011;31579;52.354;16.974;2022-08-01T04:30:08;9.40;;;6.30;;
45863;SDS011;31579;52.354;16.974;2022-08-01T04:35:08;14.70;;;9.00;;
45863;SDS011;31579;52.354;16.974;2022-08-01T04:40:08;14.70;;;9.00;;
45863;SDS011;31579;52.354;16.974;2022-08-01T04:45:08;11.90;;;7.90;;
45863;SDS011;31579;52.354;16.974;2022-08-01T04:50:11;11.90;;;7.90;;
45863;SDS011;31579;52.354;16.974;2022-08-01T04:55:08;11.30;;;7.70;;
45863;SDS011;31579;52.354;16.974;2022-08-01T05:00:08;11.30;;;7.70;;
45863;SDS011;31579;52.354;16.974;2022-08-01T05:05:09;15.30;;;8.60;;
45863;SDS011;31579;52.354;16.974;2022-08-01T05:10:08;15.30;;;8.60;;
45863;SDS011;31579;52.354;16.974;2022-08-01T05:15:08;11.70;;;7.90;;
45863;SDS011;31579;52.354;16.974;2022-08-01T05:20:08;11.70;;;7.90;;
45863;SDS011;31579;52.354;16.974;2022-08-01T05:25:08;11.70;;;7.60;;
45863;SDS011;31579;52.354;16.974;2022-08-01T05:30:08;11.70;;;7.60;;
45863;SDS011;31579;52.354;16.974;2022-08-01T05:35:08;10.10;;;7.70;;
45863;SDS011;31579;52.354;16.974;2022-08-01T05:40:08;10.10;;;7.70;;
45863;SDS011;31579;52.354;16.974;2022-08-01T05:45:08;10.20;;;8.20;;
45863;SDS011;31579;52.354;16.974;2022-08-01T05:50:08;10.20;;;8.20;;
45863;SDS011;31579;52.354;16.974;2022-08-01T05:52:04;10.20;;;8.20;;
45863;SDS011;31579;52.354;16.974;2022-08-01T05:57:03;10.20;;;8.20;;
45863;SDS011;31579;52.354;16.974;2022-08-01T06:02:03;10.20;;;8.20;;
45863;SDS011;31579;52.354;16.974;2022-08-01T06:07:03;9.90;;;6.80;;
45863;SDS011;31579;52.354;16.974;2022-08-01T06:12:03;9.90;;;6.80;;
45863;SDS011;31579;52.354;16.974;2022-08-01T06:17:03;8.50;;;6.60;;
45863;SDS011;31579;52.354;16.974;2022-08-01T06:22:03;8.50;;;6.60;;
45863;SDS011;31579;52.354;16.974;2022-08-01T06:27:03;9.40;;;6.30;;
45863;SDS011;31579;52.354;16.974;2022-08-01T06:32:03;9.40;;;6.30;;
45863;SDS011;31579;52.354;16.974;2022-08-01T06:37:06;8.30;;;6.30;;
45863;SDS011;31579;52.354;16.974;2022-08-01T06:39:17;8.30;;;6.30;;
45863;SDS011;31579;52.354;16.974;2022-08-01T06:44:15;9.40;;;6.40;;
45863;SDS011;31579;52.354;16.974;2022-08-01T06:49:15;9.40;;;6.40;;
45863;SDS011;31579;52.354;16.974;2022-08-01T06:54:15;9.00;;;6.30;;
45863;SDS011;31579;52.354;16.974;2022-08-01T06:59:15;9.00;;;6.30;;
45863;SDS011;31579;52.354;16.974;2022-08-01T07:04:15;8.90;;;6.70;;
45863;SDS011;31579;52.354;16.974;2022-08-01T07:09:17;8.90;;;6.70;;
45863;SDS011;31579;52.354;16.974;2022-08-01T07:14:15;10.90;;;7.40;;
45863;SDS011;31579;52.354;16.974;2022-08-01T07:19:16;10.90;;;7.40;;
45863;SDS011;31579;52.354;16.974;2022-08-01T07:22:04;10.90;;;7.40;;
45863;SDS011;31579;52.354;16.974;2022-08-01T07:27:02;12.10;;;7.60;;
45863;SDS011;31579;52.354;16.974;2022-08-01T07:32:03;12.10;;;7.60;;
45863;SDS011;31579;52.354;16.974;2022-08-01T07:37:02;11.30;;;8.20;;
45863;SDS011;31579;52.354;16.974;2022-08-01T07:42:02;11.30;;;8.20;;
45863;SDS011;31579;52.354;16.974;2022-08-01T07:47:03;12.10;;;8.10;;
45863;SDS011;31579;52.354;16.974;2022-08-01T07:57:08;12.10;;;8.10;;
45863;SDS011;31579;52.354;16.974;2022-08-01T08:02:08;10.70;;;8.10;;
45863;SDS011;31579;52.354;16.974;2022-08-01T08:07:08;10.70;;;8.10;;
45863;SDS011;31579;52.354;16.974;2022-08-01T08:12:08;11.20;;;8.10;;
45863;SDS011;31579;52.354;16.974;2022-08-01T08:17:08;11.20;;;8.10;;
45863;SDS011;31579;52.354;16.974;2022-08-01T08:22:12;10.80;;;8.10;;
45863;SDS011;31579;52.354;16.974;2022-08-01T08:27:08;10.80;;;8.10;;
45863;SDS011;31579;52.354;16.974;2022-08-01T08:32:08;10.40;;;7.90;;
45863;SDS011;31579;52.354;16.974;2022-08-01T08:37:08;10.40;;;7.90;;
45863;SDS011;31579;52.354;16.974;2022-08-01T08:42:08;10.40;;;7.80;;
45863;SDS011;31579;52.354;16.974;2022-08-01T08:47:08;10.40;;;7.80;;
45863;SDS011;31579;52.354;16.974;2022-08-01T08:52:08;11.90;;;8.60;;
45863;SDS011;31579;52.354;16.974;2022-08-01T08:57:08;11.90;;;8.60;;
45863;SDS011;31579;52.354;16.974;2022-08-01T09:02:08;9.90;;;8.10;;
45863;SDS011;31579;52.354;16.974;2022-08-01T09:07:08;9.90;;;8.10;;
45863;SDS011;31579;52.354;16.974;2022-08-01T09:12:08;11.70;;;9.20;;
45863;SDS011;31579;52.354;16.974;2022-08-01T09:17:08;11.70;;;9.20;;
45863;SDS011;31579;52.354;16.974;2022-08-01T09:22:09;11.30;;;8.70;;
45863;SDS011;31579;52.354;16.974;2022-08-01T09:32:08;9.80;;;7.70;;
45863;SDS011;31579;52.354;16.974;2022-08-01T09:32:27;9.80;;;7.70;;
45863;SDS011;31579;52.354;16.974;2022-08-01T09:42:25;10.30;;;6.90;;
45863;SDS011;31579;52.354;16.974;2022-08-01T09:47:36;10.30;;;6.90;;
45863;SDS011;31579;52.354;16.974;2022-08-01T09:52:25;7.80;;;5.80;;
45863;SDS011;31579;52.354;16.974;2022-08-01T09:57:25;7.80;;;5.80;;
45863;SDS011;31579;52.354;16.974;2022-08-01T10:07:25;8.00;;;5.90;;
45863;SDS011;31579;52.354;16.974;2022-08-01T10:12:25;7.20;;;5.10;;
45863;SDS011;31579;52.354;16.974;2022-08-01T10:17:25;7.20;;;5.10;;
45863;SDS011;31579;52.354;16.974;2022-08-01T10:22:25;5.10;;;3.90;;
45863;SDS011;31579;52.354;16.974;2022-08-01T10:27:25;5.10;;;3.90;;
45863;SDS011;31579;52.354;16.974;2022-08-01T10:32:25;4.80;;;3.80;;
45863;SDS011;31579;52.354;16.974;2022-08-01T10:37:25;4.80;;;3.80;;
45863;SDS011;31579;52.354;16.974;2022-08-01T10:42:25;5.70;;;3.40;;
45863;SDS011;31579;52.354;16.974;2022-08-01T10:47:27;5.70;;;3.40;;
45863;SDS011;31579;52.354;16.974;2022-08-01T10:52:25;3.90;;;2.80;;
45863;SDS011;31579;52.354;16.974;2022-08-01T10:57:25;3.90;;;2.80;;
45863;SDS011;31579;52.354;16.974;2022-08-01T11:02:26;6.00;;;4.10;;
45863;SDS011;31579;52.354;16.974;2022-08-01T11:07:42;6.00;;;4.10;;
45863;SDS011;31579;52.354;16.974;2022-08-01T11:12:37;4.90;;;4.40;;
45863;SDS011;31579;52.354;16.974;2022-08-01T11:33:05;5.10;;;4.70;;
45863;SDS011;31579;52.354;16.974;2022-08-01T11:49:58;6.20;;;4.40;;
45863;SDS011;31579;52.354;16.974;2022-08-01T11:59:58;4.50;;;3.90;;
45863;SDS011;31579;52.354;16.974;2022-08-01T12:07:31;5.30;;;3.90;;
45863;SDS011;31579;52.354;16.974;2022-08-01T12:12:31;5.10;;;4.30;;
45863;SDS011;31579;52.354;16.974;2022-08-01T12:22:30;4.90;;;4.00;;
45863;SDS011;31579;52.354;16.974;2022-08-01T12:25:19;4.90;;;4.00;;
45863;SDS011;31579;52.354;16.974;2022-08-01T12:30:19;4.90;;;4.00;;
45863;SDS011;31579;52.354;16.974;2022-08-01T12:40:11;4.60;;;3.90;;
45863;SDS011;31579;52.354;16.974;2022-08-01T12:45:11;5.80;;;4.20;;
45863;SDS011;31579;52.354;16.974;2022-08-01T12:50:13;5.80;;;4.20;;
45863;SDS011;31579;52.354;16.974;2022-08-01T13:00:12;4.60;;;4.10;;
45863;SDS011;31579;52.354;16.974;2022-08-01T13:05:15;4.90;;;3.80;;
45863;SDS011;31579;52.354;16.974;2022-08-01T13:10:10;4.90;;;3.80;;
45863;SDS011;31579;52.354;16.974;2022-08-01T13:15:26;4.80;;;4.20;;
45863;SDS011;31579;52.354;16.974;2022-08-01T13:20:21;4.80;;;4.20;;
45863;SDS011;31579;52.354;16.974;2022-08-01T13:25:10;5.40;;;4.30;;
45863;SDS011;31579;52.354;16.974;2022-08-01T13:35:11;5.30;;;4.80;;
45863;SDS011;31579;52.354;16.974;2022-08-01T13:40:10;5.30;;;4.80;;
45863;SDS011;31579;52.354;16.974;2022-08-01T13:45:10;5.90;;;5.30;;
45863;SDS011;31579;52.354;16.974;2022-08-01T13:50:10;5.90;;;5.30;;
45863;SDS011;31579;52.354;16.974;2022-08-01T13:55:10;7.30;;;4.80;;
45863;SDS011;31579;52.354;16.974;2022-08-01T14:00:10;7.30;;;4.80;;
45863;SDS011;31579;52.354;16.974;2022-08-01T14:05:10;4.90;;;4.40;;
45863;SDS011;31579;52.354;16.974;2022-08-01T14:10:10;4.90;;;4.40;;
45863;SDS011;31579;52.354;16.974;2022-08-01T14:15:10;5.20;;;3.60;;
45863;SDS011;31579;52.354;16.974;2022-08-01T14:20:10;5.20;;;3.60;;
45863;SDS011;31579;52.354;16.974;2022-08-01T14:25:14;4.20;;;2.80;;
45863;SDS011;31579;52.354;16.974;2022-08-01T14:30:10;4.20;;;2.80;;
45863;SDS011;31579;52.354;16.974;2022-08-01T14:35:10;7.00;;;2.70;;
45863;SDS011;31579;52.354;16.974;2022-08-01T14:44:03;6.70;;;4.60;;
45863;SDS011;31579;52.354;16.974;2022-08-01T14:49:02;6.70;;;4.60;;
45863;SDS011;31579;52.354;16.974;2022-08-01T14:54:03;7.30;;;6.10;;
45863;SDS011;31579;52.354;16.974;2022-08-01T14:59:02;7.30;;;6.10;;
45863;SDS011;31579;52.354;16.974;2022-08-01T15:04:03;4.80;;;4.30;;
45863;SDS011;31579;52.354;16.974;2022-08-01T15:08:02;4.80;;;4.30;;
45863;SDS011;31579;52.354;16.974;2022-08-01T15:12:59;5.50;;;4.00;;
45863;SDS011;31579;52.354;16.974;2022-08-01T15:17:59;5.50;;;4.00;;
45863;SDS011;31579;52.354;16.974;2022-08-01T15:22:59;4.70;;;3.90;;
45863;SDS011;31579;52.354;16.974;2022-08-01T15:28:00;4.70;;;3.90;;
45863;SDS011;31579;52.354;16.974;2022-08-01T15:32:59;4.30;;;3.90;;
45863;SDS011;31579;52.354;16.974;2022-08-01T15:38:01;4.30;;;3.90;;
45863;SDS011;31579;52.354;16.974;2022-08-01T15:43:00;5.00;;;3.40;;
45863;SDS011;31579;52.354;16.974;2022-08-01T15:48:00;5.00;;;3.40;;
45863;SDS011;31579;52.354;16.974;2022-08-01T15:53:00;3.40;;;2.80;;
45863;SDS011;31579;52.354;16.974;2022-08-01T15:58:00;3.40;;;2.80;;
45863;SDS011;31579;52.354;16.974;2022-08-01T16:03:00;4.20;;;2.60;;
45863;SDS011;31579;52.354;16.974;2022-08-01T16:08:31;4.20;;;2.60;;
45863;SDS011;31579;52.354;16.974;2022-08-01T16:13:31;4.40;;;2.60;;
45863;SDS011;31579;52.354;16.974;2022-08-01T16:18:31;4.40;;;2.60;;
45863;SDS011;31579;52.354;16.974;2022-08-01T16:23:31;5.50;;;2.50;;
45863;SDS011;31579;52.354;16.974;2022-08-01T16:28:31;5.50;;;2.50;;
45863;SDS011;31579;52.354;16.974;2022-08-01T16:33:32;5.20;;;2.80;;
45863;SDS011;31579;52.354;16.974;2022-08-01T16:38:31;5.20;;;2.80;;
45863;SDS011;31579;52.354;16.974;2022-08-01T16:43:31;3.60;;;2.30;;
45863;SDS011;31579;52.354;16.974;2022-08-01T16:48:32;3.60;;;2.30;;
45863;SDS011;31579;52.354;16.974;2022-08-01T16:53:31;4.80;;;2.80;;
45863;SDS011;31579;52.354;16.974;2022-08-01T16:58:31;4.80;;;2.80;;
45863;SDS011;31579;52.354;16.974;2022-08-01T17:03:31;4.30;;;2.90;;
45863;SDS011;31579;52.354;16.974;2022-08-01T17:08:31;4.30;;;2.90;;
45863;SDS011;31579;52.354;16.974;2022-08-01T17:13:31;4.20;;;2.80;;
45863;SDS011;31579;52.354;16.974;2022-08-01T17:18:31;4.20;;;2.80;;
45863;SDS011;31579;52.354;16.974;2022-08-01T17:23:31;5.00;;;2.90;;
45863;SDS011;31579;52.354;16.974;2022-08-01T17:28:31;5.00;;;2.90;;
45863;SDS011;31579;52.354;16.974;2022-08-01T17:33:31;4.20;;;3.00;;
45863;SDS011;31579;52.354;16.974;2022-08-01T17:38:31;4.20;;;3.00;;
45863;SDS011;31579;52.354;16.974;2022-08-01T17:45:43;4.50;;;3.50;;
45863;SDS011;31579;52.354;16.974;2022-08-01T17:50:43;4.50;;;3.50;;
45863;SDS011;31579;52.354;16.974;2022-08-01T17:55:43;5.10;;;4.00;;
45863;SDS011;31579;52.354;16.974;2022-08-01T18:00:43;5.10;;;4.00;;
45863;SDS011;31579;52.354;16.974;2022-08-01T18:10:52;5.40;;;4.20;;
45863;SDS011;31579;52.354;16.974;2022-08-01T18:15:52;5.80;;;4.60;;
45863;SDS011;31579;52.354;16.974;2022-08-01T18:20:52;5.80;;;4.60;;
45863;SDS011;31579;52.354;16.974;2022-08-01T18:37:05;5.60;;;4.20;;
45863;SDS011;31579;52.354;16.974;2022-08-01T18:42:03;5.60;;;4.20;;
45863;SDS011;31579;52.354;16.974;2022-08-01T18:47:03;5.00;;;3.90;;
45863;SDS011;31579;52.354;16.974;2022-08-01T18:52:03;5.00;;;3.90;;
45863;SDS011;31579;52.354;16.974;2022-08-01T18:57:01;5.00;;;3.90;;
45863;SDS011;31579;52.354;16.974;2022-08-01T19:17:54;4.40;;;2.50;;
45863;SDS011;31579;52.354;16.974;2022-08-01T19:22:54;5.80;;;3.60;;
45863;SDS011;31579;52.354;16.974;2022-08-01T19:27:54;5.80;;;3.60;;
45863;SDS011;31579;52.354;16.974;2022-08-01T19:32:54;6.70;;;4.00;;
45863;SDS011;31579;52.354;16.974;2022-08-01T19:45:06;7.60;;;4.90;;
45863;SDS011;31579;52.354;16.974;2022-08-01T20:05:05;7.10;;;5.50;;
45863;SDS011;31579;52.354;16.974;2022-08-01T20:10:05;7.10;;;5.50;;
45863;SDS011;31579;52.354;16.974;2022-08-01T20:15:05;7.20;;;5.70;;
45863;SDS011;31579;52.354;16.974;2022-08-01T20:20:05;7.20;;;5.70;;
45863;SDS011;31579;52.354;16.974;2022-08-01T20:25:05;6.10;;;5.40;;
45863;SDS011;31579;52.354;16.974;2022-08-01T20:38:09;9.30;;;6.20;;
45863;SDS011;31579;52.354;16.974;2022-08-01T20:43:09;7.70;;;5.90;;
45863;SDS011;31579;52.354;16.974;2022-08-01T20:48:09;7.70;;;5.90;;
45863;SDS011;31579;52.354;16.974;2022-08-01T20:53:09;7.90;;;6.30;;
45863;SDS011;31579;52.354;16.974;2022-08-01T20:58:14;7.90;;;6.30;;
45863;SDS011;31579;52.354;16.974;2022-08-01T21:03:10;8.00;;;7.20;;
45863;SDS011;31579;52.354;16.974;2022-08-01T21:13:13;8.90;;;6.20;;
45863;SDS011;31579;52.354;16.974;2022-08-01T21:18:13;8.90;;;6.20;;
45863;SDS011;31579;52.354;16.974;2022-08-01T21:28:11;7.20;;;5.90;;
45863;SDS011;31579;52.354;16.974;2022-08-01T21:33:11;7.80;;;6.30;;
45863;SDS011;31579;52.354;16.974;2022-08-01T21:38:11;7.80;;;6.30;;
45863;SDS011;31579;52.354;16.974;2022-08-01T21:43:12;7.90;;;6.20;;
45863;SDS011;31579;52.354;16.974;2022-08-01T21:48:11;7.90;;;6.20;;
45863;SDS011;31579;52.354;16.974;2022-08-01T21:53:19;7.60;;;5.80;;
45863;SDS011;31579;52.354;16.974;2022-08-01T22:08:11;7.30;;;6.30;;
45863;SDS011;31579;52.354;16.974;2022-08-01T22:12:07;7.30;;;6.30;;
45863;SDS011;31579;52.354;16.974;2022-08-01T22:22:15;7.30;;;6.30;;
45863;SDS011;31579;52.354;16.974;2022-08-01T22:27:15;9.60;;;6.50;;
45863;SDS011;31579;52.354;16.974;2022-08-01T22:28:10;9.60;;;6.50;;
45863;SDS011;31579;52.354;16.974;2022-08-01T22:33:09;8.50;;;6.30;;
45863;SDS011;31579;52.354;16.974;2022-08-01T22:38:08;8.50;;;6.30;;
45863;SDS011;31579;52.354;16.974;2022-08-01T23:02:05;7.70;;;6.60;;
45863;SDS011;31579;52.354;16.974;2022-08-01T23:07:05;8.30;;;6.30;;
45863;SDS011;31579;52.354;16.974;2022-08-01T23:12:06;8.30;;;6.30;;
45863;SDS011;31579;52.354;16.974;2022-08-01T23:17:05;8.80;;;6.10;;
45863;SDS011;31579;52.354;16.974;2022-08-01T23:22:05;8.80;;;6.10;;
45863;SDS011;31579;52.354;16.974;2022-08-01T23:27:09;8.10;;;6.30;;
45863;SDS011;31579;52.354;16.974;2022-08-01T23:32:05;8.10;;;6.30;;
45863;SDS011;31579;52.354;16.974;2022-08-01T23:37:05;10.20;;;5.90;;
45863;SDS011;31579;52.354;16.974;2022-08-01T23:42:06;10.20;;;5.90;;
45863;SDS011;31579;52.354;16.974;2022-08-01T23:47:06;7.20;;;6.10;;
45863;SDS011;31579;52.354;16.974;2022-08-01T23:52:05;7.20;;;6.10;;
45863;SDS011;31579;52.354;16.974;2022-08-01T23:57:05;9.20;;;5.70;;
